createdAt,value
2019-02-14T00:01:05.363Z,16.15
2019-02-14T00:03:35.178Z,16.70
2019-02-14T00:06:03.878Z,16.42
2019-02-14T00:08:33.914Z,16.80
2019-02-14T00:11:02.565Z,17.35
2019-02-14T00:13:30.581Z,17.10
2019-02-14T00:15:59.417Z,17.65
2019-02-14T00:18:27.545Z,17.27
2019-02-14T00:20:56.389Z,18.45
2019-02-14T00:23:26.585Z,17.95
2019-02-14T00:25:54.593Z,18.05
2019-02-14T00:28:22.813Z,16.55
2019-02-14T00:30:52.356Z,17.17
2019-02-14T00:33:22.672Z,15.27
2019-02-14T00:35:52.020Z,17.05
2019-02-14T00:38:20.878Z,16.92
2019-02-14T00:40:49.019Z,17.25
2019-02-14T00:43:16.809Z,18.20
2019-02-14T00:45:45.060Z,17.23
2019-02-14T00:48:14.542Z,16.55
2019-02-14T00:50:42.363Z,18.12
2019-02-14T00:53:11.007Z,20.27
2019-02-14T00:55:41.951Z,17.90
2019-02-14T00:58:11.021Z,16.27
2019-02-14T01:00:39.705Z,15.30
2019-02-14T01:03:09.233Z,13.73
2019-02-14T01:05:37.861Z,15.40
2019-02-14T01:08:07.066Z,13.10
2019-02-14T01:10:36.793Z,13.27
2019-02-14T01:13:06.244Z,12.43
2019-02-14T01:15:34.408Z,14.45
2019-02-14T01:18:02.909Z,14.68
2019-02-14T01:20:32.577Z,14.75
2019-02-14T01:23:02.936Z,15.05
2019-02-14T01:25:34.403Z,15.38
2019-02-14T01:28:03.744Z,14.43
2019-02-14T01:30:31.083Z,16.48
2019-02-14T01:32:59.798Z,16.42
2019-02-14T01:35:28.187Z,18.80
2019-02-14T01:37:57.024Z,18.27
2019-02-14T01:40:27.207Z,19.02
2019-02-14T01:42:55.040Z,19.55
2019-02-14T01:45:26.882Z,19.62
2019-02-14T01:47:55.925Z,17.40
2019-02-14T01:50:26.703Z,16.87
2019-02-14T01:52:56.894Z,17.30
2019-02-14T01:55:25.011Z,17.95
2019-02-14T01:57:54.328Z,18.75
2019-02-14T02:00:22.874Z,19.20
2019-02-14T02:02:52.784Z,18.37
2019-02-14T02:05:23.241Z,18.70
2019-02-14T02:07:52.135Z,19.77
2019-02-14T02:10:21.775Z,18.33
2019-02-14T02:12:50.188Z,19.17
2019-02-14T02:15:18.668Z,18.48
2019-02-14T02:17:47.081Z,17.80
2019-02-14T02:20:15.393Z,18.30
2019-02-14T02:22:44.138Z,18.40
2019-02-14T02:25:12.456Z,17.70
2019-02-14T02:27:40.635Z,18.10
2019-02-14T02:30:10.451Z,18.55
2019-02-14T02:32:38.525Z,19.08
2019-02-14T02:35:07.059Z,18.95
2019-02-14T02:37:36.189Z,18.95
2019-02-14T02:40:04.459Z,18.42
2019-02-14T02:42:32.891Z,18.00
2019-02-14T02:45:02.158Z,18.83
2019-02-14T02:47:30.994Z,18.70
2019-02-14T02:50:00.596Z,19.62
2019-02-14T02:52:32.399Z,17.55
2019-02-14T02:55:00.737Z,19.60
2019-02-14T02:57:32.339Z,17.87
2019-02-14T03:00:01.181Z,18.95
2019-02-14T03:02:34.305Z,19.20
2019-02-14T03:05:02.577Z,18.45
2019-02-14T03:07:31.948Z,18.92
2019-02-14T03:10:00.305Z,19.50
2019-02-14T03:12:28.610Z,19.70
2019-02-14T03:14:57.253Z,18.08
2019-02-14T03:17:28.172Z,18.05
2019-02-14T03:19:56.251Z,18.20
2019-02-14T03:22:24.956Z,19.37
2019-02-14T03:24:53.416Z,19.40
2019-02-14T03:27:21.874Z,19.65
2019-02-14T03:29:50.824Z,18.17
2019-02-14T03:32:20.960Z,19.85
2019-02-14T03:34:49.520Z,18.70
2019-02-14T03:37:17.711Z,18.52
2019-02-14T03:39:45.097Z,19.62
2019-02-14T03:42:13.217Z,18.98
2019-02-14T03:44:41.649Z,18.42
2019-02-14T03:47:13.106Z,19.35
2019-02-14T03:49:42.276Z,18.75
2019-02-14T03:52:11.104Z,18.87
2019-02-14T03:54:42.841Z,19.62
2019-02-14T03:57:10.239Z,19.25
2019-02-14T03:59:39.487Z,19.55
2019-02-14T04:02:08.567Z,18.05
2019-02-14T04:04:37.125Z,19.85
2019-02-14T04:07:06.151Z,18.92
2019-02-14T04:09:36.087Z,18.45
2019-02-14T04:12:04.639Z,19.23
2019-02-14T04:14:32.869Z,18.58
2019-02-14T04:17:03.709Z,19.70
2019-02-14T04:19:32.974Z,19.17
2019-02-14T04:22:01.350Z,18.58
2019-02-14T04:24:29.906Z,18.73
2019-02-14T04:26:57.113Z,18.70
2019-02-14T04:29:26.812Z,19.77
2019-02-14T04:31:55.473Z,19.70
2019-02-14T04:34:26.282Z,18.67
2019-02-14T04:36:55.807Z,19.37
2019-02-14T04:39:22.834Z,19.87
2019-02-14T04:41:52.202Z,19.02
2019-02-14T04:44:21.649Z,18.23
2019-02-14T04:46:50.380Z,20.07
2019-02-14T04:49:18.802Z,19.05
2019-02-14T04:51:47.763Z,18.65
2019-02-14T04:54:15.339Z,20.10
2019-02-14T04:56:43.454Z,20.33
2019-02-14T04:59:13.455Z,18.70
2019-02-14T05:01:44.681Z,20.53
2019-02-14T05:04:14.249Z,21.30
2019-02-14T05:06:45.649Z,20.35
2019-02-14T05:09:14.364Z,20.40
2019-02-14T05:11:42.434Z,20.43
2019-02-14T05:14:11.230Z,19.97
2019-02-14T05:16:40.344Z,20.73
2019-02-14T05:19:08.829Z,20.33
2019-02-14T05:21:37.526Z,20.53
2019-02-14T05:24:05.227Z,20.03
2019-02-14T05:26:33.112Z,19.83
2019-02-14T05:29:01.918Z,19.00
2019-02-14T05:31:30.101Z,18.27
2019-02-14T05:33:58.304Z,19.63
2019-02-14T05:36:26.812Z,18.77
2019-02-14T05:38:59.264Z,20.12
2019-02-14T05:41:28.498Z,20.02
2019-02-14T05:43:56.857Z,20.20
2019-02-14T05:46:24.418Z,20.02
2019-02-14T05:48:52.403Z,20.37
2019-02-14T05:51:22.858Z,19.15
2019-02-14T05:53:50.822Z,19.27
2019-02-14T05:56:20.544Z,19.33
2019-02-14T05:58:50.609Z,19.92
2019-02-14T06:01:20.062Z,18.60
2019-02-14T06:03:49.869Z,19.87
2019-02-14T06:06:21.818Z,17.45
2019-02-14T06:08:50.099Z,16.80
2019-02-14T06:11:18.205Z,19.87
2019-02-14T06:13:45.883Z,18.83
2019-02-14T06:16:14.742Z,18.77
2019-02-14T06:18:42.919Z,19.87
2019-02-14T06:21:11.302Z,19.77
2019-02-14T06:23:39.730Z,19.37
2019-02-14T06:26:07.253Z,19.97
2019-02-14T06:28:37.381Z,17.63
2019-02-14T06:31:05.065Z,19.40
2019-02-14T06:33:34.559Z,18.83
2019-02-14T06:36:03.840Z,19.42
2019-02-14T06:38:31.999Z,19.15
2019-02-14T06:41:00.120Z,19.08
2019-02-14T06:43:29.441Z,17.70
2019-02-14T06:45:58.636Z,15.93
2019-02-14T06:48:27.865Z,18.62
2019-02-14T06:51:00.991Z,19.67
2019-02-14T06:53:29.569Z,19.07
2019-02-14T06:55:58.287Z,18.93
2019-02-14T06:58:26.866Z,17.97
2019-02-14T07:00:55.255Z,16.63
2019-02-14T07:03:23.411Z,24.50
2019-02-14T07:05:51.888Z,17.83
2019-02-14T07:08:21.233Z,18.80
2019-02-14T07:10:50.060Z,20.15
2019-02-14T07:13:18.841Z,19.87
2019-02-14T07:15:47.193Z,20.40
2019-02-14T07:18:16.990Z,21.17
2019-02-14T07:20:47.286Z,20.30
2019-02-14T07:23:16.451Z,19.40
2019-02-14T07:25:45.470Z,19.05
2019-02-14T07:28:15.003Z,14.80
2019-02-14T07:30:44.618Z,13.32
2019-02-14T07:33:13.108Z,13.25
2019-02-14T07:35:42.847Z,14.63
2019-02-14T07:38:10.858Z,14.20
2019-02-14T07:40:39.110Z,13.55
2019-02-14T07:43:07.939Z,13.62
2019-02-14T07:45:36.187Z,11.85
2019-02-14T07:48:05.087Z,12.20
2019-02-14T07:50:33.790Z,12.60
2019-02-14T07:53:01.627Z,13.38
2019-02-14T07:55:30.503Z,13.07
2019-02-14T07:57:59.955Z,13.62
2019-02-14T08:00:30.646Z,15.32
2019-02-14T08:02:59.339Z,18.50
2019-02-14T08:05:28.130Z,14.05
2019-02-14T08:07:55.969Z,14.75
2019-02-14T08:10:26.583Z,14.25
2019-02-14T08:12:55.217Z,13.55
2019-02-14T08:15:23.484Z,13.13
2019-02-14T08:17:53.091Z,13.77
2019-02-14T08:20:21.839Z,12.50
2019-02-14T08:22:50.273Z,12.80
2019-02-14T08:25:18.925Z,12.85
2019-02-14T08:27:47.921Z,13.00
2019-02-14T08:30:17.979Z,11.65
2019-02-14T08:32:45.860Z,12.10
2019-02-14T08:35:14.629Z,11.40
2019-02-14T08:37:45.855Z,11.95
2019-02-14T08:40:12.998Z,12.02
2019-02-14T08:42:42.980Z,12.35
2019-02-14T08:45:11.361Z,11.38
2019-02-14T08:47:42.518Z,12.07
2019-02-14T08:50:16.527Z,11.68
2019-02-14T08:52:45.295Z,13.05
2019-02-14T08:55:14.369Z,11.98
2019-02-14T08:57:43.313Z,12.23
2019-02-14T09:00:12.814Z,12.48
2019-02-14T09:02:40.830Z,12.00
2019-02-14T09:05:09.275Z,12.15
2019-02-14T09:07:37.420Z,11.65
2019-02-14T09:10:05.882Z,10.43
2019-02-14T09:12:35.589Z,10.40
2019-02-14T09:15:02.896Z,11.25
2019-02-14T09:17:34.342Z,11.55
2019-02-14T09:20:08.133Z,11.48
2019-02-14T09:22:36.514Z,10.15
2019-02-14T09:25:05.009Z,11.23
2019-02-14T09:27:34.509Z,10.10
2019-02-14T09:30:03.547Z,10.95
2019-02-14T09:32:32.685Z,11.40
2019-02-14T09:35:07.490Z,10.60
2019-02-14T09:37:36.917Z,11.15
2019-02-14T09:40:09.365Z,10.40
2019-02-14T09:42:38.603Z,9.52
2019-02-14T09:45:07.643Z,10.07
2019-02-14T09:47:37.080Z,10.48
2019-02-14T09:50:09.072Z,9.18
2019-02-14T09:52:38.710Z,10.68
2019-02-14T09:55:06.897Z,10.00
2019-02-14T09:57:37.454Z,10.43
2019-02-14T10:00:06.252Z,10.30
2019-02-14T10:02:34.063Z,10.23
2019-02-14T10:05:01.999Z,10.38
2019-02-14T10:07:34.647Z,9.75
2019-02-14T10:10:02.411Z,9.52
2019-02-14T10:12:30.149Z,9.57
2019-02-14T10:14:58.806Z,9.75
2019-02-14T10:17:26.904Z,10.38
2019-02-14T10:19:56.695Z,9.77
2019-02-14T10:22:26.617Z,9.05
2019-02-14T10:24:55.383Z,10.93
2019-02-14T10:27:23.680Z,10.52
2019-02-14T10:29:55.402Z,9.88
2019-02-14T10:32:23.610Z,9.95
2019-02-14T10:34:57.668Z,10.25
2019-02-14T10:37:25.597Z,9.57
2019-02-14T10:39:54.134Z,9.98
2019-02-14T10:42:22.469Z,10.00
2019-02-14T10:44:52.211Z,10.45
2019-02-14T10:47:22.999Z,9.23
2019-02-14T10:49:56.697Z,9.40
2019-02-14T10:52:27.293Z,8.57
2019-02-14T10:55:01.594Z,9.27
2019-02-14T10:57:33.960Z,9.55
2019-02-14T11:00:02.007Z,9.65
2019-02-14T11:02:31.732Z,8.93
2019-02-14T11:05:00.476Z,9.55
2019-02-14T11:07:29.621Z,9.73
2019-02-14T11:09:57.436Z,9.63
2019-02-14T11:12:25.328Z,10.20
2019-02-14T11:14:53.070Z,10.27
2019-02-14T11:17:24.062Z,9.93
2019-02-14T11:19:58.967Z,10.00
2019-02-14T11:22:28.723Z,9.60
2019-02-14T11:24:59.210Z,9.48
2019-02-14T11:27:28.999Z,9.80
2019-02-14T11:29:58.479Z,9.48
2019-02-14T11:32:27.339Z,8.88
2019-02-14T11:34:56.603Z,9.60
2019-02-14T11:37:25.901Z,8.75
2019-02-14T11:39:52.746Z,8.70
2019-02-14T11:42:21.976Z,12.77
2019-02-14T11:44:50.501Z,9.23
2019-02-14T11:47:20.759Z,10.57
2019-02-14T11:49:52.562Z,11.05
2019-02-14T11:52:21.473Z,10.30
2019-02-14T11:54:49.296Z,9.23
2019-02-14T11:57:18.034Z,10.60
2019-02-14T11:59:46.700Z,9.65
2019-02-14T12:02:19.237Z,9.50
2019-02-14T12:04:49.303Z,10.05
2019-02-14T12:07:19.221Z,9.15
2019-02-14T12:09:47.222Z,8.90
2019-02-14T12:12:20.831Z,10.10
2019-02-14T12:14:48.906Z,8.85
2019-02-14T12:17:16.972Z,9.55
2019-02-14T12:19:53.243Z,8.88
2019-02-14T12:22:28.424Z,9.23
2019-02-14T12:24:57.522Z,8.10
2019-02-14T12:27:27.278Z,9.07
2019-02-14T12:29:55.321Z,9.23
2019-02-14T12:32:26.035Z,8.38
2019-02-14T12:34:55.621Z,7.70
2019-02-14T12:37:24.668Z,8.90
2019-02-14T12:39:53.789Z,8.20
2019-02-14T12:42:22.545Z,8.20
2019-02-14T12:44:58.037Z,8.50
2019-02-14T12:47:27.225Z,8.45
2019-02-14T12:49:57.569Z,7.93
2019-02-14T12:52:31.033Z,8.43
2019-02-14T12:55:01.976Z,8.15
2019-02-14T12:57:34.455Z,8.02
2019-02-14T13:00:02.869Z,8.07
2019-02-14T13:02:31.198Z,7.97
2019-02-14T13:05:01.104Z,8.65
2019-02-14T13:07:35.788Z,8.50
2019-02-14T13:10:03.723Z,7.57
2019-02-14T13:12:33.770Z,6.65
2019-02-14T13:15:08.439Z,7.28
2019-02-14T13:17:36.621Z,7.12
2019-02-14T13:20:06.151Z,7.37
2019-02-14T13:22:37.735Z,7.25
2019-02-14T13:25:14.218Z,8.40
2019-02-14T13:27:48.293Z,7.05
2019-02-14T13:30:19.588Z,6.82
2019-02-14T13:32:48.223Z,7.47
2019-02-14T13:35:17.594Z,7.97
2019-02-14T13:37:46.333Z,6.60
2019-02-14T13:40:16.439Z,6.57
2019-02-14T13:42:46.044Z,6.57
2019-02-14T13:45:14.694Z,6.57
2019-02-14T13:47:44.944Z,6.10
2019-02-14T13:50:15.744Z,7.57
2019-02-14T13:52:46.376Z,6.55
2019-02-14T13:55:15.612Z,6.95
2019-02-14T13:57:47.528Z,6.20
2019-02-14T14:00:19.970Z,5.93
2019-02-14T14:02:51.894Z,6.43
2019-02-14T14:05:24.308Z,5.57
2019-02-14T14:07:54.321Z,6.12
2019-02-14T14:10:22.541Z,5.65
2019-02-14T14:12:53.262Z,6.35
2019-02-14T14:15:25.561Z,6.80
2019-02-14T14:17:58.851Z,6.32
2019-02-14T14:20:27.133Z,6.37
2019-02-14T14:22:55.844Z,6.00
2019-02-14T14:25:26.444Z,6.20
2019-02-14T14:27:56.575Z,6.93
2019-02-14T14:30:25.258Z,5.85
2019-02-14T14:32:54.222Z,6.05
2019-02-14T14:35:23.996Z,6.47
2019-02-14T14:37:52.314Z,6.43
2019-02-14T14:40:20.584Z,6.28
2019-02-14T14:43:07.038Z,6.45
2019-02-14T14:45:46.737Z,5.85
2019-02-14T14:48:19.496Z,6.18
2019-02-14T14:50:45.945Z,6.93
2019-02-14T14:53:14.036Z,6.12
2019-02-14T14:55:42.121Z,5.72
2019-02-14T14:58:12.009Z,6.00
2019-02-14T15:00:40.320Z,5.50
2019-02-14T15:03:11.503Z,5.93
2019-02-14T15:05:40.280Z,6.05
2019-02-14T15:08:10.437Z,5.75
2019-02-14T15:10:39.113Z,6.10
2019-02-14T15:13:09.069Z,6.30
2019-02-14T15:15:37.898Z,6.12
2019-02-14T15:18:06.259Z,6.85
2019-02-14T15:20:36.286Z,6.95
2019-02-14T15:23:05.070Z,7.40
2019-02-14T15:25:33.584Z,8.05
2019-02-14T15:28:03.674Z,7.30
2019-02-14T15:30:31.470Z,7.43
2019-02-14T15:33:01.681Z,7.45
2019-02-14T15:35:31.057Z,7.97
2019-02-14T15:37:59.665Z,7.60
2019-02-14T15:40:28.287Z,8.25
2019-02-14T15:42:56.021Z,7.18
2019-02-14T15:45:25.328Z,7.65
2019-02-14T15:47:53.913Z,6.85
2019-02-14T15:50:22.698Z,7.32
2019-02-14T15:52:52.327Z,7.20
2019-02-14T15:55:21.982Z,7.12
2019-02-14T15:57:50.562Z,7.18
2019-02-14T16:00:18.166Z,6.80
2019-02-14T16:02:47.886Z,5.97
2019-02-14T16:05:18.947Z,6.45
2019-02-14T16:07:46.971Z,5.75
2019-02-14T16:10:18.462Z,6.55
2019-02-14T16:12:45.731Z,5.75
2019-02-14T16:15:13.316Z,5.60
2019-02-14T16:17:42.694Z,5.90
2019-02-14T16:20:12.225Z,5.50
2019-02-14T16:22:42.463Z,5.82
2019-02-14T16:25:10.553Z,5.22
2019-02-14T16:27:38.695Z,5.80
2019-02-14T16:30:09.988Z,5.40
2019-02-14T16:32:38.888Z,6.00
2019-02-14T16:35:08.856Z,5.00
2019-02-14T16:37:37.005Z,5.47
2019-02-14T16:40:08.939Z,5.70
2019-02-14T16:42:42.322Z,5.82
2019-02-14T16:45:11.816Z,5.43
2019-02-14T16:47:43.419Z,5.30
2019-02-14T16:50:16.330Z,4.57
2019-02-14T16:52:46.187Z,5.03
2019-02-14T16:55:15.172Z,5.03
2019-02-14T16:57:43.174Z,5.60
2019-02-14T17:00:12.146Z,5.82
2019-02-14T17:02:40.643Z,5.00
2019-02-14T17:05:11.873Z,5.80
2019-02-14T17:07:39.995Z,5.47
2019-02-14T17:10:09.660Z,5.68
2019-02-14T17:12:38.750Z,4.80
2019-02-14T17:15:11.141Z,5.25
2019-02-14T17:17:39.895Z,6.22
2019-02-14T17:20:10.060Z,5.75
2019-02-14T17:22:39.698Z,5.90
2019-02-14T17:25:08.941Z,5.93
2019-02-14T17:27:38.770Z,5.93
2019-02-14T17:30:08.392Z,6.30
2019-02-14T17:32:37.267Z,5.40
2019-02-14T17:35:05.910Z,6.20
2019-02-14T17:37:34.698Z,6.20
2019-02-14T17:40:05.271Z,5.70
2019-02-14T17:42:35.148Z,6.95
2019-02-14T17:45:04.725Z,5.75
2019-02-14T17:47:33.674Z,6.15
2019-02-14T17:50:03.557Z,5.97
2019-02-14T17:52:31.423Z,6.75
2019-02-14T17:55:00.273Z,5.93
2019-02-14T17:57:28.304Z,6.75
2019-02-14T17:59:59.649Z,6.12
2019-02-14T18:02:29.351Z,6.03
2019-02-14T18:04:58.160Z,5.90
2019-02-14T18:07:26.945Z,5.37
2019-02-14T18:09:55.704Z,6.87
2019-02-14T18:12:24.530Z,5.95
2019-02-14T18:14:55.372Z,6.00
2019-02-14T18:17:24.563Z,5.75
2019-02-14T18:19:54.858Z,5.57
2019-02-14T18:22:26.591Z,5.40
2019-02-14T18:24:56.980Z,5.20
2019-02-14T18:27:25.274Z,5.32
2019-02-14T18:29:54.666Z,5.55
2019-02-14T18:32:23.650Z,5.50
2019-02-14T18:34:52.754Z,5.62
2019-02-14T18:37:20.522Z,6.15
2019-02-14T18:39:49.333Z,6.00
2019-02-14T18:42:19.286Z,5.50
2019-02-14T18:44:47.590Z,6.07
2019-02-14T18:47:16.439Z,6.57
2019-02-14T18:49:45.978Z,5.80
2019-02-14T18:52:14.500Z,6.40
2019-02-14T18:54:43.333Z,6.87
2019-02-14T18:57:13.206Z,7.40
2019-02-14T18:59:43.151Z,7.10
2019-02-14T19:02:11.449Z,7.40
2019-02-14T19:04:42.524Z,5.82
2019-02-14T19:07:12.066Z,6.20
2019-02-14T19:09:41.584Z,6.28
2019-02-14T19:12:09.528Z,6.50
2019-02-14T19:14:39.820Z,6.85
2019-02-14T19:17:08.097Z,7.80
2019-02-14T19:19:36.922Z,7.20
2019-02-14T19:22:05.267Z,7.05
2019-02-14T19:24:34.180Z,7.25
2019-02-14T19:27:02.414Z,7.30
2019-02-14T19:29:31.044Z,7.45
2019-02-14T19:31:59.443Z,7.57
2019-02-14T19:34:27.494Z,6.97
2019-02-14T19:36:55.184Z,6.75
2019-02-14T19:39:24.288Z,6.53
2019-02-14T19:41:54.407Z,7.30
2019-02-14T19:44:22.927Z,7.07
2019-02-14T19:46:51.107Z,6.85
2019-02-14T19:49:19.080Z,7.68
2019-02-14T19:51:47.107Z,7.97
2019-02-14T19:54:16.772Z,8.13
2019-02-14T19:56:45.640Z,7.90
2019-02-14T19:59:14.505Z,7.07
2019-02-14T20:01:43.260Z,7.32
2019-02-14T20:04:12.601Z,7.85
2019-02-14T20:06:40.856Z,7.07
2019-02-14T20:09:10.294Z,7.82
2019-02-14T20:11:40.422Z,7.75
2019-02-14T20:14:09.217Z,7.47
2019-02-14T20:16:37.921Z,7.85
2019-02-14T20:19:06.689Z,7.47
2019-02-14T20:21:35.183Z,8.00
2019-02-14T20:24:05.048Z,7.30
2019-02-14T20:26:32.994Z,8.63
2019-02-14T20:29:01.124Z,8.15
2019-02-14T20:31:29.321Z,7.97
2019-02-14T20:33:57.531Z,8.02
2019-02-14T20:36:25.927Z,8.38
2019-02-14T20:38:55.101Z,8.38
2019-02-14T20:41:24.489Z,7.68
2019-02-14T20:43:52.885Z,7.82
2019-02-14T20:46:21.725Z,8.43
2019-02-14T20:48:51.539Z,8.45
2019-02-14T20:51:22.060Z,8.10
2019-02-14T20:53:52.905Z,8.02
2019-02-14T20:56:22.989Z,7.82
2019-02-14T20:58:51.722Z,8.02
2019-02-14T21:01:20.008Z,8.77
2019-02-14T21:03:48.164Z,7.35
2019-02-14T21:06:16.251Z,7.50
2019-02-14T21:08:44.919Z,7.15
2019-02-14T21:11:13.703Z,7.72
2019-02-14T21:13:44.184Z,8.30
2019-02-14T21:16:13.551Z,8.45
2019-02-14T21:18:41.990Z,7.68
2019-02-14T21:21:10.420Z,7.93
2019-02-14T21:23:39.044Z,8.07
2019-02-14T21:26:08.624Z,8.02
2019-02-14T21:28:37.883Z,7.12
2019-02-14T21:31:06.522Z,8.43
2019-02-14T21:33:35.430Z,8.13
2019-02-14T21:36:03.851Z,8.40
2019-02-14T21:38:32.273Z,8.75
2019-02-14T21:41:01.621Z,7.85
2019-02-14T21:43:30.428Z,8.13
2019-02-14T21:45:59.707Z,7.97
2019-02-14T21:48:27.626Z,10.17
2019-02-14T21:50:56.177Z,9.27
2019-02-14T21:53:27.066Z,8.43
2019-02-14T21:55:57.662Z,8.90
2019-02-14T21:58:25.833Z,8.07
2019-02-14T22:00:55.144Z,8.85
2019-02-14T22:03:25.076Z,9.43
2019-02-14T22:05:53.136Z,9.43
2019-02-14T22:08:22.162Z,8.98
2019-02-14T22:10:50.291Z,9.95
2019-02-14T22:13:18.617Z,11.32
2019-02-14T22:15:48.591Z,9.25
2019-02-14T22:18:16.817Z,9.65
2019-02-14T22:20:45.266Z,9.20
2019-02-14T22:23:14.114Z,8.88
2019-02-14T22:25:42.912Z,8.18
2019-02-14T22:28:11.013Z,8.35
2019-02-14T22:30:39.263Z,9.35
2019-02-14T22:33:08.033Z,9.27
2019-02-14T22:35:36.190Z,9.40
2019-02-14T22:38:04.768Z,8.77
2019-02-14T22:40:34.109Z,9.52
2019-02-14T22:43:02.752Z,9.93
2019-02-14T22:45:30.935Z,10.90
2019-02-14T22:47:59.247Z,9.73
2019-02-14T22:50:28.802Z,8.98
2019-02-14T22:52:57.672Z,7.87
2019-02-14T22:55:25.667Z,8.75
2019-02-14T22:57:54.958Z,9.88
2019-02-14T23:00:42.688Z,8.55
2019-02-14T23:03:11.428Z,8.05
2019-02-14T23:05:42.129Z,6.93
2019-02-14T23:08:11.177Z,8.13
2019-02-14T23:10:39.622Z,7.68
2019-02-14T23:13:07.534Z,8.18
2019-02-14T23:15:35.774Z,8.60
2019-02-14T23:18:04.259Z,8.05
2019-02-14T23:20:32.338Z,8.23
2019-02-14T23:23:00.657Z,7.37
2019-02-14T23:25:29.497Z,8.35
2019-02-14T23:27:58.243Z,7.47
2019-02-14T23:30:27.731Z,8.98
2019-02-14T23:32:56.557Z,8.18
2019-02-14T23:35:25.772Z,8.05
2019-02-14T23:37:54.182Z,8.02
2019-02-14T23:40:22.499Z,8.55
2019-02-14T23:42:51.171Z,7.28
2019-02-14T23:45:19.968Z,8.52
2019-02-14T23:47:47.993Z,7.03
2019-02-14T23:50:16.580Z,7.07
2019-02-14T23:52:45.503Z,6.05
2019-02-14T23:55:15.665Z,6.68
2019-02-14T23:57:43.780Z,6.53
